createdAt,value
2022-11-24T00:01:20.290Z,8.54
2022-11-24T00:03:57.204Z,8.56
2022-11-24T00:06:25.278Z,8.56
2022-11-24T00:08:53.904Z,8.59
2022-11-24T00:11:24.043Z,8.61
2022-11-24T00:13:52.132Z,8.63
2022-11-24T00:16:23.219Z,8.64
2022-11-24T00:18:53.315Z,8.63
2022-11-24T00:21:21.887Z,8.60
2022-11-24T00:23:50.743Z,8.52
2022-11-24T00:26:24.012Z,8.45
2022-11-24T00:28:54.858Z,8.36
2022-11-24T00:31:25.117Z,8.26
2022-11-24T00:33:55.479Z,8.19
2022-11-24T00:36:25.717Z,8.11
2022-11-24T00:38:55.618Z,8.11
2022-11-24T00:41:24.297Z,8.10
2022-11-24T00:43:52.922Z,8.06
2022-11-24T00:46:21.384Z,8.07
2022-11-24T00:48:49.130Z,8.12
2022-11-24T00:51:18.388Z,8.09
2022-11-24T00:53:46.428Z,8.05
2022-11-24T00:56:14.155Z,7.99
2022-11-24T00:58:42.264Z,7.94
2022-11-24T01:01:17.704Z,7.86
2022-11-24T01:03:46.884Z,7.79
2022-11-24T01:06:18.137Z,7.68
2022-11-24T01:08:46.580Z,7.64
2022-11-24T01:11:16.104Z,7.65
2022-11-24T01:13:46.564Z,7.68
2022-11-24T01:16:17.692Z,7.79
2022-11-24T01:18:45.755Z,7.84
2022-11-24T01:21:14.334Z,7.88
2022-11-24T01:23:41.971Z,7.91
2022-11-24T01:26:12.160Z,7.95
2022-11-24T01:28:46.302Z,7.96
2022-11-24T01:31:15.665Z,7.97
2022-11-24T01:33:43.529Z,7.96
2022-11-24T01:36:11.783Z,7.98
2022-11-24T01:38:39.406Z,8.00
2022-11-24T01:41:11.527Z,8.02
2022-11-24T01:43:39.741Z,8.04
2022-11-24T01:46:31.017Z,8.08
2022-11-24T01:49:21.965Z,8.14
2022-11-24T01:51:55.666Z,8.15
2022-11-24T01:54:36.491Z,8.14
2022-11-24T01:57:17.878Z,8.11
2022-11-24T01:59:49.434Z,8.07
2022-11-24T02:02:22.195Z,8.03
2022-11-24T02:04:51.245Z,7.99
2022-11-24T02:07:19.186Z,8.00
2022-11-24T02:09:55.127Z,8.00
2022-11-24T02:12:26.264Z,8.01
2022-11-24T02:14:56.083Z,7.99
2022-11-24T02:17:23.647Z,8.00
2022-11-24T02:20:08.105Z,7.95
2022-11-24T02:22:57.205Z,7.96
2022-11-24T02:25:46.395Z,7.98
2022-11-24T02:28:18.187Z,8.00
2022-11-24T02:30:46.201Z,7.96
2022-11-24T02:33:14.355Z,7.93
2022-11-24T02:35:42.534Z,7.90
2022-11-24T02:38:14.195Z,7.91
2022-11-24T02:40:46.685Z,7.91
2022-11-24T02:43:18.084Z,7.91
2022-11-24T02:45:45.802Z,7.93
2022-11-24T02:48:16.737Z,7.93
2022-11-24T02:50:44.539Z,7.94
2022-11-24T02:53:12.100Z,7.96
2022-11-24T02:55:39.755Z,7.99
2022-11-24T02:58:07.336Z,8.01
2022-11-24T03:00:34.915Z,8.06
2022-11-24T03:03:03.074Z,8.08
2022-11-24T03:05:31.137Z,8.09
2022-11-24T03:07:58.800Z,8.07
2022-11-24T03:10:26.535Z,8.05
2022-11-24T03:12:54.854Z,8.03
2022-11-24T03:15:23.872Z,8.04
2022-11-24T03:17:54.990Z,8.05
2022-11-24T03:20:23.124Z,8.07
2022-11-24T03:22:50.753Z,8.05
2022-11-24T03:25:18.957Z,8.00
2022-11-24T03:27:47.197Z,7.94
2022-11-24T03:30:15.569Z,7.89
2022-11-24T03:32:43.280Z,7.86
2022-11-24T03:35:10.951Z,7.82
2022-11-24T03:37:38.657Z,7.78
2022-11-24T03:40:07.051Z,7.75
2022-11-24T03:42:34.639Z,7.72
2022-11-24T03:45:29.831Z,7.67
2022-11-24T03:47:52.856Z,7.64
2022-11-24T03:50:20.420Z,7.60
2022-11-24T03:52:48.047Z,7.59
2022-11-24T03:55:15.693Z,7.58
2022-11-24T03:57:43.237Z,7.57
2022-11-24T04:00:12.046Z,7.56
2022-11-24T04:02:39.677Z,7.56
2022-11-24T04:05:07.931Z,7.57
2022-11-24T04:07:35.701Z,7.56
2022-11-24T04:10:03.799Z,7.58
2022-11-24T04:12:46.509Z,7.59
2022-11-24T04:15:19.900Z,7.60
2022-11-24T04:17:49.460Z,7.62
2022-11-24T04:20:17.898Z,7.61
2022-11-24T04:22:45.484Z,7.61
2022-11-24T04:25:13.325Z,7.60
2022-11-24T04:27:40.928Z,7.62
2022-11-24T04:30:08.908Z,7.61
2022-11-24T04:32:36.962Z,7.62
2022-11-24T04:35:05.141Z,7.54
2022-11-24T04:37:32.723Z,7.46
2022-11-24T04:40:00.419Z,7.36
2022-11-24T04:42:28.046Z,7.31
2022-11-24T04:44:55.779Z,7.30
2022-11-24T04:47:25.093Z,7.30
2022-11-24T04:49:53.466Z,7.30
2022-11-24T04:52:23.271Z,7.29
2022-11-24T04:54:51.385Z,7.30
2022-11-24T04:57:24.347Z,7.31
2022-11-24T04:59:52.988Z,7.29
2022-11-24T05:02:21.404Z,7.33
2022-11-24T05:04:49.014Z,7.32
2022-11-24T05:07:19.122Z,7.34
2022-11-24T05:10:06.155Z,7.31
2022-11-24T05:12:33.776Z,7.31
2022-11-24T05:15:02.585Z,7.30
2022-11-24T05:17:32.831Z,7.34
2022-11-24T05:20:00.932Z,7.36
2022-11-24T05:22:29.979Z,7.37
2022-11-24T05:24:58.098Z,7.38
2022-11-24T05:27:25.737Z,7.37
2022-11-24T05:29:53.302Z,7.37
2022-11-24T05:32:20.825Z,7.36
2022-11-24T05:34:48.431Z,7.39
2022-11-24T05:37:16.114Z,7.42
2022-11-24T05:39:43.685Z,7.45
2022-11-24T05:42:30.314Z,7.46
2022-11-24T05:44:57.897Z,7.45
2022-11-24T05:47:25.765Z,7.41
2022-11-24T05:49:53.389Z,7.35
2022-11-24T05:52:20.941Z,7.32
2022-11-24T05:54:48.513Z,7.32
2022-11-24T05:57:17.638Z,7.33
2022-11-24T05:59:45.572Z,7.35
2022-11-24T06:02:14.163Z,7.38
2022-11-24T06:04:41.915Z,7.40
2022-11-24T06:07:13.794Z,7.43
2022-11-24T06:09:42.965Z,7.47
2022-11-24T06:12:12.640Z,7.47
2022-11-24T06:14:40.763Z,7.47
2022-11-24T06:17:09.965Z,7.50
2022-11-24T06:19:41.738Z,7.53
2022-11-24T06:22:09.704Z,7.55
2022-11-24T06:24:37.360Z,7.56
2022-11-24T06:27:04.907Z,7.56
2022-11-24T06:29:32.444Z,7.54
2022-11-24T06:32:00.170Z,7.55
2022-11-24T06:34:27.764Z,7.52
2022-11-24T06:36:55.340Z,7.47
2022-11-24T06:39:22.865Z,7.43
2022-11-24T06:41:50.917Z,7.45
2022-11-24T06:44:19.166Z,7.48
2022-11-24T06:46:46.983Z,7.52
2022-11-24T06:49:14.763Z,7.54
2022-11-24T06:51:42.815Z,7.56
2022-11-24T06:54:14.039Z,7.59
2022-11-24T06:56:41.613Z,7.62
2022-11-24T06:59:17.612Z,7.62
2022-11-24T07:01:45.710Z,7.64
2022-11-24T07:04:13.744Z,7.65
2022-11-24T07:06:41.724Z,7.67
2022-11-24T07:09:11.999Z,7.69
2022-11-24T07:11:40.390Z,7.72
2022-11-24T07:14:08.613Z,7.73
2022-11-24T07:16:36.620Z,7.73
2022-11-24T07:19:04.606Z,7.75
2022-11-24T07:21:32.702Z,7.73
2022-11-24T07:24:00.492Z,7.71
2022-11-24T07:26:28.132Z,7.68
2022-11-24T07:28:55.678Z,7.66
2022-11-24T07:31:26.676Z,7.60
2022-11-24T07:33:55.600Z,7.52
2022-11-24T07:36:23.483Z,7.44
2022-11-24T07:38:51.257Z,7.39
2022-11-24T07:41:19.864Z,7.33
2022-11-24T07:43:48.560Z,7.30
2022-11-24T07:46:19.168Z,7.25
2022-11-24T07:48:47.182Z,7.21
2022-11-24T07:51:15.664Z,7.17
2022-11-24T07:53:43.843Z,7.13
2022-11-24T07:56:12.655Z,7.07
2022-11-24T07:58:40.203Z,7.03
2022-11-24T08:01:13.502Z,7.03
2022-11-24T08:03:42.571Z,7.05
2022-11-24T08:06:31.873Z,7.08
2022-11-24T08:08:58.756Z,7.06
2022-11-24T08:11:26.829Z,7.07
2022-11-24T08:13:54.409Z,7.09
2022-11-24T08:16:22.059Z,7.12
2022-11-24T08:18:51.779Z,7.15
2022-11-24T08:21:20.872Z,7.17
2022-11-24T08:23:49.210Z,7.19
2022-11-24T08:26:18.981Z,7.22
2022-11-24T08:28:47.921Z,7.26
2022-11-24T08:31:20.809Z,7.33
2022-11-24T08:33:48.992Z,7.38
2022-11-24T08:36:18.803Z,7.44
2022-11-24T08:38:49.908Z,7.47
2022-11-24T08:41:17.921Z,7.53
2022-11-24T08:43:45.501Z,7.57
2022-11-24T08:46:17.168Z,7.62
2022-11-24T08:48:50.244Z,7.66
2022-11-24T08:51:21.307Z,7.70
2022-11-24T08:53:49.049Z,7.79
2022-11-24T08:56:17.002Z,7.86
2022-11-24T08:58:48.458Z,7.91
2022-11-24T09:01:17.884Z,7.96
2022-11-24T09:03:50.668Z,8.02
2022-11-24T09:06:23.199Z,8.04
2022-11-24T09:08:55.679Z,8.06
2022-11-24T09:11:25.062Z,8.07
2022-11-24T09:13:53.878Z,8.13
2022-11-24T09:16:26.042Z,8.17
2022-11-24T09:18:59.720Z,8.23
2022-11-24T09:21:28.334Z,8.28
2022-11-24T09:23:56.093Z,8.33
2022-11-24T09:26:26.451Z,8.36
2022-11-24T09:28:55.702Z,8.40
2022-11-24T09:31:30.557Z,8.41
2022-11-24T09:33:59.567Z,8.43
2022-11-24T09:36:28.037Z,8.41
2022-11-24T09:38:55.936Z,8.37
2022-11-24T09:41:49.824Z,8.29
2022-11-24T09:44:26.893Z,8.26
2022-11-24T09:47:14.646Z,8.20
2022-11-24T09:49:54.456Z,8.19
2022-11-24T09:52:50.353Z,8.20
2022-11-24T09:55:42.289Z,8.26
2022-11-24T09:58:17.693Z,8.33
2022-11-24T10:00:48.751Z,8.37
2022-11-24T10:03:30.572Z,8.39
2022-11-24T10:05:59.528Z,8.47
2022-11-24T10:09:05.695Z,8.51
2022-11-24T10:11:42.380Z,8.60
2022-11-24T10:14:31.820Z,8.68
2022-11-24T10:17:21.575Z,8.82
2022-11-24T10:19:58.275Z,8.95
2022-11-24T10:23:04.297Z,9.05
2022-11-24T10:25:42.602Z,9.18
2022-11-24T10:28:14.798Z,9.22
2022-11-24T10:30:43.479Z,9.21
2022-11-24T10:33:28.706Z,9.17
2022-11-24T10:36:09.693Z,9.10
2022-11-24T10:38:56.756Z,9.06
2022-11-24T10:41:37.735Z,9.03
2022-11-24T10:44:05.337Z,9.02
2022-11-24T10:46:39.029Z,9.04
2022-11-24T10:49:07.047Z,9.11
2022-11-24T10:52:11.438Z,9.23
2022-11-24T10:54:56.163Z,9.42
2022-11-24T10:57:38.463Z,9.57
2022-11-24T11:00:21.392Z,9.65
2022-11-24T11:02:50.743Z,9.70
2022-11-24T11:05:31.823Z,9.73
2022-11-24T11:08:14.452Z,9.78
2022-11-24T11:10:46.345Z,9.80
2022-11-24T11:13:28.498Z,9.81
2022-11-24T11:15:57.911Z,9.84
2022-11-24T11:18:34.567Z,9.87
2022-11-24T11:21:03.850Z,9.86
2022-11-24T11:23:34.629Z,9.89
2022-11-24T11:26:38.725Z,9.93
2022-11-24T11:34:55.540Z,10.00
2022-11-24T11:37:27.796Z,10.02
2022-11-24T11:39:56.058Z,10.04
2022-11-24T11:43:01.852Z,10.05
2022-11-24T11:45:21.062Z,10.03
2022-11-24T11:47:51.248Z,10.01
2022-11-24T11:50:25.805Z,9.97
2022-11-24T11:53:10.659Z,9.96
2022-11-24T11:55:54.835Z,9.93
2022-11-24T11:58:34.598Z,9.89
2022-11-24T12:01:23.362Z,9.83
2022-11-24T12:04:09.374Z,9.84
2022-11-24T12:06:54.012Z,9.84
2022-11-24T12:09:49.831Z,9.87
2022-11-24T12:12:59.739Z,9.86
2022-11-24T12:15:32.634Z,9.89
2022-11-24T12:18:40.304Z,9.90
2022-11-24T12:21:53.569Z,9.92
2022-11-24T12:24:33.229Z,9.95
2022-11-24T12:27:10.088Z,9.91
2022-11-24T12:29:48.288Z,9.91
2022-11-24T12:32:52.860Z,9.86
2022-11-24T12:35:43.714Z,9.83
2022-11-24T12:38:45.379Z,9.79
2022-11-24T12:41:40.316Z,9.75
2022-11-24T12:44:11.560Z,9.60
2022-11-24T12:46:59.420Z,9.52
2022-11-24T12:49:45.714Z,9.49
2022-11-24T12:52:25.461Z,9.46
2022-11-24T12:54:54.475Z,9.48
2022-11-24T12:57:41.349Z,9.46
2022-11-24T13:00:57.125Z,9.46
2022-11-24T13:03:39.888Z,9.51
2022-11-24T13:06:25.685Z,9.51
2022-11-24T13:08:53.663Z,9.48
2022-11-24T13:11:21.138Z,9.47
2022-11-24T13:14:06.240Z,9.44
2022-11-24T13:16:37.213Z,9.47
2022-11-24T13:19:29.133Z,9.46
2022-11-24T13:22:13.891Z,9.44
2022-11-24T13:24:43.173Z,9.44
2022-11-24T13:27:13.517Z,9.44
2022-11-24T13:29:46.497Z,9.46
2022-11-24T13:32:17.819Z,9.46
2022-11-24T13:34:55.304Z,9.45
2022-11-24T13:37:31.699Z,9.48
2022-11-24T13:40:23.192Z,9.46
2022-11-24T13:42:57.683Z,9.48
2022-11-24T13:45:40.302Z,9.49
2022-11-24T13:48:21.444Z,9.48
2022-11-24T13:50:49.631Z,9.52
2022-11-24T13:53:38.550Z,9.53
2022-11-24T13:56:22.723Z,9.56
2022-11-24T13:58:53.967Z,9.60
2022-11-24T14:01:32.527Z,9.69
2022-11-24T14:04:35.232Z,9.83
2022-11-24T14:07:09.506Z,9.96
2022-11-24T14:09:43.701Z,10.09
2022-11-24T14:12:27.978Z,10.15
2022-11-24T14:15:23.598Z,10.40
2022-11-24T14:17:51.338Z,10.73
2022-11-24T14:20:28.312Z,10.94
2022-11-24T14:22:56.245Z,11.10
2022-11-24T14:25:31.031Z,11.13
2022-11-24T14:28:00.425Z,11.10
2022-11-24T14:30:28.374Z,11.06
2022-11-24T14:33:01.540Z,11.04
2022-11-24T14:35:31.808Z,11.00
2022-11-24T14:38:04.794Z,10.96
2022-11-24T14:40:54.737Z,10.88
2022-11-24T14:43:31.554Z,10.76
2022-11-24T14:46:09.942Z,10.59
2022-11-24T14:48:48.765Z,10.48
2022-11-24T14:51:25.274Z,10.38
2022-11-24T14:53:58.020Z,10.31
2022-11-24T14:56:50.721Z,10.26
2022-11-24T14:59:24.163Z,10.20
2022-11-24T15:01:52.490Z,10.12
2022-11-24T15:04:54.185Z,10.00
2022-11-24T15:07:24.184Z,9.91
2022-11-24T15:09:58.527Z,9.86
2022-11-24T15:12:37.903Z,9.81
2022-11-24T15:15:15.102Z,9.75
2022-11-24T15:17:53.218Z,9.69
2022-11-24T15:20:41.788Z,9.69
2022-11-24T15:23:12.136Z,9.75
2022-11-24T15:25:39.751Z,9.79
2022-11-24T15:28:08.722Z,9.80
2022-11-24T15:30:37.550Z,9.82
2022-11-24T15:33:14.639Z,9.80
2022-11-24T15:35:43.141Z,9.75
2022-11-24T15:38:10.779Z,9.69
2022-11-24T15:40:39.741Z,9.64
2022-11-24T15:43:32.098Z,9.54
2022-11-24T15:46:01.395Z,9.49
2022-11-24T15:48:29.631Z,9.48
2022-11-24T15:50:58.920Z,9.47
2022-11-24T15:53:32.183Z,9.43
2022-11-24T15:56:01.718Z,9.37
2022-11-24T15:58:29.361Z,9.32
2022-11-24T16:00:57.124Z,9.25
2022-11-24T16:03:46.491Z,9.18
2022-11-24T16:06:20.586Z,9.09
2022-11-24T16:08:51.194Z,9.04
2022-11-24T16:11:18.765Z,9.02
2022-11-24T16:13:51.930Z,8.96
2022-11-24T16:16:22.732Z,8.92
2022-11-24T16:18:50.747Z,8.91
2022-11-24T16:21:18.328Z,8.90
2022-11-24T16:23:46.665Z,8.86
2022-11-24T16:26:14.369Z,8.82
2022-11-24T16:28:42.915Z,8.80
2022-11-24T16:31:10.473Z,8.81
2022-11-24T16:33:40.800Z,8.80
2022-11-24T16:36:08.840Z,8.77
2022-11-24T16:38:36.440Z,8.70
2022-11-24T16:41:04.100Z,8.68
2022-11-24T16:43:31.701Z,8.68
2022-11-24T16:46:23.000Z,8.64
2022-11-24T16:48:53.031Z,8.64
2022-11-24T16:51:22.600Z,8.63
2022-11-24T16:53:58.561Z,8.59
2022-11-24T16:56:27.564Z,8.54
2022-11-24T16:58:55.417Z,8.50
2022-11-24T17:01:23.253Z,8.43
2022-11-24T17:03:50.922Z,8.41
2022-11-24T17:06:19.137Z,8.36
2022-11-24T17:08:47.694Z,8.33
2022-11-24T17:11:16.617Z,8.38
2022-11-24T17:13:45.694Z,8.40
2022-11-24T17:16:16.554Z,8.39
2022-11-24T17:18:44.763Z,8.37
2022-11-24T17:21:14.862Z,8.35
2022-11-24T17:23:42.623Z,8.36
2022-11-24T17:26:18.931Z,8.35
2022-11-24T17:28:46.622Z,8.33
2022-11-24T17:31:17.182Z,8.31
2022-11-24T17:33:44.849Z,8.31
2022-11-24T17:36:12.460Z,8.31
2022-11-24T17:38:40.076Z,8.32
2022-11-24T17:41:07.892Z,8.31
2022-11-24T17:43:35.563Z,8.33
2022-11-24T17:46:04.404Z,8.35
2022-11-24T17:48:32.830Z,8.42
2022-11-24T17:51:27.404Z,8.48
2022-11-24T17:53:57.374Z,8.47
2022-11-24T17:56:27.288Z,8.40
2022-11-24T17:58:59.742Z,8.36
2022-11-24T18:01:32.433Z,8.31
2022-11-24T18:04:00.187Z,8.23
2022-11-24T18:06:28.982Z,8.17
2022-11-24T18:08:57.822Z,8.14
2022-11-24T18:11:31.492Z,8.11
2022-11-24T18:14:02.530Z,8.11
2022-11-24T18:16:35.055Z,8.10
2022-11-24T18:19:09.326Z,8.10
2022-11-24T18:21:41.882Z,8.11
2022-11-24T18:24:11.195Z,8.10
2022-11-24T18:26:40.451Z,8.08
2022-11-24T18:29:08.157Z,8.08
2022-11-24T18:31:36.288Z,8.06
2022-11-24T18:34:05.654Z,8.04
2022-11-24T18:36:33.937Z,8.02
2022-11-24T18:39:03.404Z,8.04
2022-11-24T18:41:31.920Z,8.03
2022-11-24T18:44:02.533Z,8.04
2022-11-24T18:46:30.213Z,8.02
2022-11-24T18:48:57.832Z,7.99
2022-11-24T18:51:25.478Z,7.97
2022-11-24T18:54:00.135Z,7.95
2022-11-24T18:56:28.062Z,7.93
2022-11-24T18:58:56.524Z,7.94
2022-11-24T19:01:27.763Z,7.92
2022-11-24T19:03:57.939Z,7.91
2022-11-24T19:06:32.072Z,7.91
2022-11-24T19:09:05.316Z,7.97
2022-11-24T19:11:35.895Z,8.03
2022-11-24T19:14:06.497Z,8.05
2022-11-24T19:16:35.098Z,8.04
2022-11-24T19:19:03.866Z,8.04
2022-11-24T19:21:33.437Z,8.05
2022-11-24T19:24:05.306Z,8.04
2022-11-24T19:26:37.462Z,8.01
2022-11-24T19:29:06.227Z,8.03
2022-11-24T19:31:35.098Z,8.02
2022-11-24T19:34:03.642Z,7.96
2022-11-24T19:36:31.727Z,7.92
2022-11-24T19:38:59.940Z,7.91
2022-11-24T19:41:30.220Z,7.91
2022-11-24T19:43:58.849Z,8.02
2022-11-24T19:46:29.631Z,8.08
2022-11-24T19:49:00.535Z,8.09
2022-11-24T19:51:33.192Z,8.07
2022-11-24T19:54:01.363Z,8.03
2022-11-24T19:56:31.466Z,8.01
2022-11-24T19:58:59.136Z,8.00
2022-11-24T20:01:30.129Z,8.01
2022-11-24T20:04:06.342Z,7.99
2022-11-24T20:06:37.419Z,8.00
2022-11-24T20:09:07.883Z,8.01
2022-11-24T20:11:36.183Z,8.03
2022-11-24T20:14:04.192Z,8.02
2022-11-24T20:16:33.818Z,8.00
2022-11-24T20:19:07.372Z,7.96
2022-11-24T20:21:36.417Z,7.96
2022-11-24T20:24:07.557Z,7.95
2022-11-24T20:26:38.249Z,7.95
2022-11-24T20:29:06.464Z,7.92
2022-11-24T20:31:39.891Z,7.90
2022-11-24T20:34:08.742Z,7.88
2022-11-24T20:36:38.653Z,7.89
2022-11-24T20:39:09.501Z,7.93
2022-11-24T20:41:39.042Z,7.95
2022-11-24T20:44:10.807Z,8.01
2022-11-24T20:46:39.698Z,8.04
2022-11-24T20:49:08.717Z,8.05
2022-11-24T20:51:42.071Z,8.07
2022-11-24T20:54:11.512Z,8.11
2022-11-24T20:56:41.493Z,8.14
2022-11-24T20:59:16.072Z,8.17
2022-11-24T21:01:46.065Z,8.21
2022-11-24T21:04:17.693Z,8.24
2022-11-24T21:06:45.992Z,8.23
2022-11-24T21:09:13.592Z,8.24
2022-11-24T21:11:41.514Z,8.29
2022-11-24T21:14:09.786Z,8.34
2022-11-24T21:16:39.495Z,8.34
2022-11-24T21:19:17.483Z,8.36
2022-11-24T21:21:47.648Z,8.39
2022-11-24T21:24:17.585Z,8.43
2022-11-24T21:26:51.862Z,8.50
2022-11-24T21:29:22.461Z,8.56
2022-11-24T21:31:50.329Z,8.60
2022-11-24T21:34:19.280Z,8.62
2022-11-24T21:36:47.372Z,8.62
2022-11-24T21:39:15.648Z,8.57
2022-11-24T21:41:43.741Z,8.53
2022-11-24T21:44:13.508Z,8.43
2022-11-24T21:46:45.925Z,8.37
2022-11-24T21:49:17.085Z,8.32
2022-11-24T21:51:44.616Z,8.27
2022-11-24T21:54:12.187Z,8.22
2022-11-24T21:56:39.713Z,8.24
2022-11-24T21:59:07.352Z,8.26
2022-11-24T22:01:35.016Z,8.27
2022-11-24T22:04:03.292Z,8.27
2022-11-24T22:06:32.101Z,8.27
2022-11-24T22:08:59.645Z,8.22
2022-11-24T22:11:27.149Z,8.16
2022-11-24T22:13:54.818Z,8.13
2022-11-24T22:16:24.287Z,8.08
2022-11-24T22:18:52.220Z,8.08
2022-11-24T22:21:33.601Z,8.08
2022-11-24T22:24:01.603Z,8.09
2022-11-24T22:26:30.049Z,8.10
2022-11-24T22:28:58.690Z,8.12
2022-11-24T22:31:28.588Z,8.14
2022-11-24T22:33:57.411Z,8.15
2022-11-24T22:36:28.903Z,8.18
2022-11-24T22:38:58.885Z,8.20
2022-11-24T22:41:26.477Z,8.19
2022-11-24T22:43:54.303Z,8.20
2022-11-24T22:46:26.448Z,8.21
2022-11-24T22:48:55.232Z,8.21
2022-11-24T22:51:26.369Z,8.19
2022-11-24T22:53:59.534Z,8.17
2022-11-24T22:56:32.549Z,8.15
2022-11-24T22:59:01.458Z,8.15
2022-11-24T23:01:29.911Z,8.15
2022-11-24T23:03:58.045Z,8.14
2022-11-24T23:06:28.800Z,8.14
2022-11-24T23:08:58.357Z,8.13
2022-11-24T23:11:37.980Z,8.13
2022-11-24T23:14:11.808Z,8.14
2022-11-24T23:16:39.659Z,8.13
2022-11-24T23:19:07.357Z,8.11
2022-11-24T23:21:38.569Z,8.13
2022-11-24T23:24:07.171Z,8.12
2022-11-24T23:26:37.200Z,8.10
2022-11-24T23:29:05.773Z,8.10
2022-11-24T23:31:33.460Z,8.11
2022-11-24T23:34:02.626Z,8.09
2022-11-24T23:36:31.110Z,8.07
2022-11-24T23:39:07.004Z,8.02
2022-11-24T23:41:34.912Z,7.98
2022-11-24T23:44:02.699Z,7.96
2022-11-24T23:46:30.552Z,7.94
2022-11-24T23:48:58.144Z,7.94
2022-11-24T23:51:28.212Z,7.94
2022-11-24T23:53:56.962Z,7.94
2022-11-24T23:56:33.258Z,7.89
2022-11-24T23:59:03.007Z,7.90
